createdAt,value
2022-07-26T00:01:23.155Z,29.30
2022-07-26T00:03:54.854Z,29.20
2022-07-26T00:06:23.368Z,29.00
2022-07-26T00:08:51.736Z,29.00
2022-07-26T00:11:21.092Z,29.10
2022-07-26T00:13:51.292Z,29.00
2022-07-26T00:16:19.574Z,28.90
2022-07-26T00:18:48.664Z,28.90
2022-07-26T00:21:17.013Z,29.10
2022-07-26T00:23:45.204Z,29.00
2022-07-26T00:26:13.415Z,28.90
2022-07-26T00:28:42.373Z,28.80
2022-07-26T00:31:12.978Z,28.90
2022-07-26T00:33:41.870Z,28.80
2022-07-26T00:36:10.292Z,28.80
2022-07-26T00:38:38.547Z,28.90
2022-07-26T00:41:10.306Z,29.00
2022-07-26T00:43:38.584Z,29.00
2022-07-26T00:46:11.245Z,29.00
2022-07-26T00:48:39.574Z,29.00
2022-07-26T00:51:10.752Z,29.00
2022-07-26T00:53:39.029Z,29.00
2022-07-26T00:56:07.338Z,29.00
2022-07-26T00:58:35.522Z,29.00
2022-07-26T01:01:06.512Z,28.90
2022-07-26T01:03:39.667Z,28.80
2022-07-26T01:06:08.754Z,28.70
2022-07-26T01:08:37.135Z,28.80
2022-07-26T01:11:08.471Z,28.80
2022-07-26T01:13:36.755Z,28.90
2022-07-26T01:16:08.275Z,28.80
2022-07-26T01:18:38.291Z,28.70
2022-07-26T01:21:13.732Z,28.70
2022-07-26T01:23:44.713Z,28.60
2022-07-26T01:26:13.912Z,28.60
2022-07-26T01:28:43.016Z,28.60
2022-07-26T01:31:11.323Z,28.60
2022-07-26T01:33:39.657Z,28.60
2022-07-26T01:36:08.638Z,28.60
2022-07-26T01:38:36.854Z,28.50
2022-07-26T01:41:09.428Z,28.60
2022-07-26T01:43:37.796Z,28.60
2022-07-26T01:46:10.224Z,28.60
2022-07-26T01:48:38.619Z,28.60
2022-07-26T01:51:07.267Z,28.60
2022-07-26T01:53:35.726Z,28.70
2022-07-26T01:56:06.585Z,28.70
2022-07-26T01:58:36.150Z,28.70
2022-07-26T02:01:08.429Z,28.80
2022-07-26T02:03:39.306Z,28.70
2022-07-26T02:06:07.828Z,28.70
2022-07-26T02:08:35.997Z,28.70
2022-07-26T02:11:06.782Z,28.70
2022-07-26T02:13:38.242Z,28.70
2022-07-26T02:16:12.244Z,28.80
2022-07-26T02:18:40.850Z,28.80
2022-07-26T02:21:09.517Z,28.80
2022-07-26T02:23:40.711Z,28.70
2022-07-26T02:26:10.507Z,28.70
2022-07-26T02:28:40.170Z,28.70
2022-07-26T02:31:08.432Z,28.70
2022-07-26T02:33:36.730Z,28.60
2022-07-26T02:36:07.601Z,28.60
2022-07-26T02:38:35.890Z,28.50
2022-07-26T02:41:06.794Z,28.50
2022-07-26T02:43:35.237Z,28.50
2022-07-26T02:46:07.463Z,28.40
2022-07-26T02:48:35.754Z,28.50
2022-07-26T02:51:06.304Z,28.50
2022-07-26T02:53:34.427Z,28.50
2022-07-26T02:56:04.807Z,28.50
2022-07-26T02:58:33.029Z,28.50
2022-07-26T03:01:01.274Z,28.50
2022-07-26T03:03:30.845Z,28.50
2022-07-26T03:06:07.829Z,28.60
2022-07-26T03:08:35.983Z,28.60
2022-07-26T03:11:10.333Z,28.60
2022-07-26T03:13:40.085Z,28.40
2022-07-26T03:16:09.149Z,28.40
2022-07-26T03:18:39.015Z,28.30
2022-07-26T03:21:10.275Z,28.20
2022-07-26T03:23:38.573Z,28.00
2022-07-26T03:26:09.857Z,27.90
2022-07-26T03:28:39.458Z,27.80
2022-07-26T03:31:07.737Z,27.90
2022-07-26T03:33:35.923Z,27.90
2022-07-26T03:36:11.448Z,27.90
2022-07-26T03:38:43.776Z,27.80
2022-07-26T03:41:13.440Z,27.80
2022-07-26T03:43:42.106Z,27.90
2022-07-26T03:46:10.453Z,27.90
2022-07-26T03:48:38.732Z,28.00
2022-07-26T03:51:11.239Z,28.10
2022-07-26T03:53:39.356Z,28.10
2022-07-26T03:56:25.456Z,28.10
2022-07-26T03:58:53.635Z,28.10
2022-07-26T04:01:22.008Z,28.10
2022-07-26T04:03:50.215Z,28.10
2022-07-26T04:06:20.207Z,28.10
2022-07-26T04:08:51.396Z,28.20
2022-07-26T04:11:19.729Z,28.10
2022-07-26T04:13:47.960Z,28.10
2022-07-26T04:16:16.144Z,28.10
2022-07-26T04:18:44.352Z,28.10
2022-07-26T04:21:12.574Z,28.00
2022-07-26T04:23:42.134Z,27.90
2022-07-26T04:26:10.609Z,27.80
2022-07-26T04:28:38.790Z,27.80
2022-07-26T04:31:10.176Z,27.70
2022-07-26T04:33:38.426Z,27.60
2022-07-26T04:36:10.312Z,27.60
2022-07-26T04:38:38.652Z,27.60
2022-07-26T04:41:11.332Z,27.40
2022-07-26T04:43:39.589Z,27.30
2022-07-26T04:46:08.073Z,27.30
2022-07-26T04:48:37.903Z,27.30
2022-07-26T04:51:09.022Z,27.10
2022-07-26T04:53:37.258Z,27.20
2022-07-26T04:56:10.408Z,27.20
2022-07-26T04:58:38.649Z,27.20
2022-07-26T05:01:10.995Z,27.10
2022-07-26T05:03:39.559Z,27.00
2022-07-26T05:06:08.031Z,27.00
2022-07-26T05:08:36.248Z,27.00
2022-07-26T05:11:11.878Z,27.00
2022-07-26T05:13:41.434Z,27.00
2022-07-26T05:16:11.894Z,27.00
2022-07-26T05:18:43.925Z,27.00
2022-07-26T05:21:18.476Z,26.90
2022-07-26T05:23:46.807Z,26.90
2022-07-26T05:26:15.298Z,26.90
2022-07-26T05:28:44.857Z,26.80
2022-07-26T05:31:13.076Z,26.90
2022-07-26T05:33:41.311Z,26.80
2022-07-26T05:36:09.958Z,26.90
2022-07-26T05:38:38.607Z,26.90
2022-07-26T05:41:09.705Z,26.90
2022-07-26T05:43:40.577Z,26.80
2022-07-26T05:46:11.724Z,27.00
2022-07-26T05:48:40.613Z,27.00
2022-07-26T05:51:09.173Z,27.00
2022-07-26T05:53:38.266Z,27.10
2022-07-26T05:56:09.762Z,27.00
2022-07-26T05:58:38.152Z,27.00
2022-07-26T06:01:10.489Z,26.90
2022-07-26T06:03:38.695Z,26.90
2022-07-26T06:06:11.482Z,27.00
2022-07-26T06:08:41.168Z,27.00
2022-07-26T06:11:09.358Z,26.90
2022-07-26T06:13:37.584Z,27.00
2022-07-26T06:16:10.330Z,27.00
2022-07-26T06:18:38.565Z,27.10
2022-07-26T06:21:09.683Z,27.10
2022-07-26T06:23:37.867Z,27.10
2022-07-26T06:26:09.412Z,27.10
2022-07-26T06:28:39.400Z,27.10
2022-07-26T06:31:12.092Z,27.10
2022-07-26T06:33:40.268Z,27.20
2022-07-26T06:36:09.023Z,27.30
2022-07-26T06:38:37.428Z,27.40
2022-07-26T06:41:08.662Z,27.40
2022-07-26T06:43:36.815Z,27.40
2022-07-26T06:46:08.829Z,27.40
2022-07-26T06:48:39.396Z,27.40
2022-07-26T06:51:15.449Z,27.30
2022-07-26T06:53:43.922Z,27.30
2022-07-26T06:56:14.863Z,27.40
2022-07-26T06:58:43.168Z,27.40
2022-07-26T07:01:11.489Z,27.40
2022-07-26T07:03:41.054Z,27.50
2022-07-26T07:06:09.608Z,27.60
2022-07-26T07:08:37.875Z,27.60
2022-07-26T07:11:08.224Z,27.70
2022-07-26T07:13:36.452Z,27.70
2022-07-26T07:16:07.214Z,27.80
2022-07-26T07:18:35.511Z,27.90
2022-07-26T07:21:07.339Z,27.90
2022-07-26T07:23:35.527Z,27.80
2022-07-26T07:26:05.839Z,28.00
2022-07-26T07:28:38.395Z,28.10
2022-07-26T07:31:09.476Z,28.10
2022-07-26T07:33:52.600Z,28.20
2022-07-26T07:36:23.044Z,28.20
2022-07-26T07:38:51.330Z,28.20
2022-07-26T07:41:20.093Z,28.10
2022-07-26T07:43:48.294Z,28.10
2022-07-26T07:46:16.727Z,28.10
2022-07-26T07:48:47.504Z,28.10
2022-07-26T07:56:25.075Z,28.00
2022-07-26T07:58:54.758Z,27.90
2022-07-26T08:01:23.043Z,27.80
2022-07-26T08:04:08.494Z,27.80
2022-07-26T08:06:37.039Z,27.80
2022-07-26T08:09:06.577Z,27.80
2022-07-26T08:11:35.172Z,27.80
2022-07-26T08:14:04.790Z,28.00
2022-07-26T08:16:33.125Z,28.20
2022-07-26T08:19:01.408Z,28.20
2022-07-26T08:21:30.711Z,28.30
2022-07-26T08:23:59.428Z,28.40
2022-07-26T08:26:27.640Z,28.50
2022-07-26T08:28:59.529Z,28.60
2022-07-26T08:31:30.446Z,28.70
2022-07-26T08:33:58.823Z,28.70
2022-07-26T08:36:32.203Z,28.80
2022-07-26T08:39:01.345Z,28.90
2022-07-26T08:41:30.261Z,28.90
2022-07-26T08:44:06.550Z,29.00
2022-07-26T08:46:38.679Z,29.00
2022-07-26T08:49:10.206Z,29.10
2022-07-26T08:51:40.749Z,29.10
2022-07-26T08:54:08.937Z,29.20
2022-07-26T08:56:42.343Z,29.20
2022-07-26T08:59:19.980Z,29.20
2022-07-26T09:01:58.792Z,29.30
2022-07-26T09:04:32.202Z,29.30
2022-07-26T09:07:05.261Z,29.40
2022-07-26T09:09:34.682Z,29.40
2022-07-26T09:12:15.714Z,29.40
2022-07-26T09:14:46.645Z,29.40
2022-07-26T09:17:18.754Z,29.50
2022-07-26T09:19:47.969Z,29.50
2022-07-26T09:22:17.470Z,29.50
2022-07-26T09:24:47.273Z,29.50
2022-07-26T09:27:17.131Z,29.60
2022-07-26T09:29:47.602Z,29.60
2022-07-26T09:32:19.728Z,29.60
2022-07-26T09:34:52.921Z,29.60
2022-07-26T09:37:34.817Z,29.70
2022-07-26T09:40:05.581Z,29.70
2022-07-26T09:42:33.760Z,29.70
2022-07-26T09:45:02.767Z,29.70
2022-07-26T09:47:39.700Z,29.70
2022-07-26T09:50:12.696Z,29.70
2022-07-26T09:52:41.135Z,29.80
2022-07-26T09:55:10.829Z,29.80
2022-07-26T09:57:39.190Z,29.80
2022-07-26T10:00:08.681Z,29.80
2022-07-26T10:02:38.329Z,29.80
2022-07-26T10:05:07.804Z,29.90
2022-07-26T10:07:36.271Z,29.90
2022-07-26T10:10:08.345Z,29.90
2022-07-26T10:12:37.161Z,29.90
2022-07-26T10:15:05.963Z,30.00
2022-07-26T10:17:43.563Z,30.00
2022-07-26T10:20:33.131Z,30.00
2022-07-26T10:23:01.975Z,30.00
2022-07-26T10:25:49.149Z,30.00
2022-07-26T10:28:26.752Z,30.10
2022-07-26T10:31:25.896Z,30.10
2022-07-26T10:33:56.539Z,30.20
2022-07-26T10:36:33.951Z,30.20
2022-07-26T10:39:11.249Z,30.20
2022-07-26T10:41:45.235Z,30.30
2022-07-26T10:44:19.737Z,30.30
2022-07-26T10:47:02.943Z,30.30
2022-07-26T10:49:37.911Z,30.30
2022-07-26T10:52:12.187Z,30.30
2022-07-26T10:55:19.421Z,30.40
2022-07-26T10:57:50.060Z,30.40
2022-07-26T11:00:24.958Z,30.40
2022-07-26T11:03:00.816Z,30.40
2022-07-26T11:05:34.987Z,30.40
2022-07-26T11:08:11.773Z,30.40
2022-07-26T11:10:41.650Z,30.40
2022-07-26T11:13:15.677Z,30.50
2022-07-26T11:15:46.644Z,30.50
2022-07-26T11:18:22.278Z,30.40
2022-07-26T11:20:54.577Z,30.50
2022-07-26T11:23:29.596Z,30.50
2022-07-26T11:26:17.480Z,30.50
2022-07-26T11:28:54.430Z,30.50
2022-07-26T11:31:49.263Z,30.50
2022-07-26T11:34:19.214Z,30.60
2022-07-26T11:36:50.285Z,30.60
2022-07-26T11:39:24.315Z,30.60
2022-07-26T11:41:57.752Z,30.60
2022-07-26T11:44:26.464Z,30.60
2022-07-26T11:46:56.062Z,30.60
2022-07-26T11:49:52.394Z,30.60
2022-07-26T11:52:25.102Z,30.50
2022-07-26T11:54:54.741Z,30.50
2022-07-26T11:57:22.998Z,30.40
2022-07-26T11:59:51.668Z,30.40
2022-07-26T12:02:22.424Z,30.40
2022-07-26T12:04:50.849Z,30.50
2022-07-26T12:07:21.511Z,30.50
2022-07-26T12:09:54.072Z,30.60
2022-07-26T12:12:24.574Z,30.60
2022-07-26T12:14:59.109Z,30.60
2022-07-26T12:17:34.710Z,30.70
2022-07-26T12:20:12.732Z,30.70
2022-07-26T12:22:42.902Z,30.70
2022-07-26T12:25:11.369Z,30.60
2022-07-26T12:27:47.477Z,30.60
2022-07-26T12:30:17.721Z,30.60
2022-07-26T12:32:48.664Z,30.60
2022-07-26T12:35:25.246Z,30.60
2022-07-26T12:37:55.616Z,30.60
2022-07-26T12:40:25.075Z,30.60
2022-07-26T12:43:01.154Z,30.60
2022-07-26T12:45:32.314Z,30.60
2022-07-26T12:48:02.334Z,30.70
2022-07-26T12:50:31.709Z,30.70
2022-07-26T12:53:03.657Z,30.80
2022-07-26T12:55:32.044Z,30.80
2022-07-26T12:58:00.748Z,30.80
2022-07-26T13:00:30.146Z,30.80
2022-07-26T13:02:58.787Z,30.90
2022-07-26T13:05:27.370Z,30.90
2022-07-26T13:07:55.760Z,30.90
2022-07-26T13:10:34.458Z,30.90
2022-07-26T13:13:03.749Z,31.00
2022-07-26T13:15:36.155Z,31.00
2022-07-26T13:18:07.206Z,31.00
2022-07-26T13:20:35.708Z,31.00
2022-07-26T13:23:03.986Z,31.00
2022-07-26T13:25:38.596Z,30.90
2022-07-26T13:28:09.007Z,30.90
2022-07-26T13:30:39.463Z,30.90
2022-07-26T13:33:08.348Z,30.90
2022-07-26T13:35:39.045Z,31.00
2022-07-26T13:38:09.823Z,31.00
2022-07-26T13:40:39.446Z,31.10
2022-07-26T13:43:07.665Z,31.10
2022-07-26T13:45:35.825Z,31.20
2022-07-26T13:48:04.253Z,31.20
2022-07-26T13:50:32.527Z,31.20
2022-07-26T13:53:00.840Z,31.20
2022-07-26T13:55:29.153Z,31.10
2022-07-26T13:57:58.773Z,31.10
2022-07-26T14:00:30.982Z,31.20
2022-07-26T14:03:00.133Z,31.30
2022-07-26T14:05:29.078Z,31.30
2022-07-26T14:07:57.415Z,31.40
2022-07-26T14:10:26.427Z,31.40
2022-07-26T14:12:54.855Z,31.40
2022-07-26T14:15:24.523Z,31.50
2022-07-26T14:17:53.332Z,31.50
2022-07-26T14:20:22.290Z,31.50
2022-07-26T14:22:53.572Z,31.60
2022-07-26T14:25:22.273Z,31.60
2022-07-26T14:27:51.156Z,31.60
2022-07-26T14:30:19.524Z,31.50
2022-07-26T14:32:49.447Z,31.40
2022-07-26T14:35:17.693Z,31.30
2022-07-26T14:37:46.374Z,31.20
2022-07-26T14:40:16.779Z,31.20
2022-07-26T14:42:46.021Z,31.20
2022-07-26T14:45:15.092Z,31.20
2022-07-26T14:47:43.892Z,31.20
2022-07-26T14:50:16.562Z,31.10
2022-07-26T14:52:46.995Z,31.10
2022-07-26T14:55:19.222Z,31.10
2022-07-26T14:57:51.323Z,31.10
2022-07-26T15:00:19.903Z,31.10
2022-07-26T15:02:49.579Z,31.10
2022-07-26T15:05:19.699Z,31.10
2022-07-26T15:07:48.209Z,31.10
2022-07-26T15:10:16.982Z,31.10
2022-07-26T15:12:45.222Z,31.20
2022-07-26T15:15:13.395Z,31.10
2022-07-26T15:17:41.630Z,31.20
2022-07-26T15:20:10.197Z,31.20
2022-07-26T15:22:39.847Z,31.20
2022-07-26T15:25:09.029Z,31.20
2022-07-26T15:27:39.998Z,31.20
2022-07-26T15:30:14.759Z,31.20
2022-07-26T15:32:43.436Z,31.20
2022-07-26T15:35:14.268Z,31.20
2022-07-26T15:37:44.832Z,31.20
2022-07-26T15:40:14.055Z,31.20
2022-07-26T15:42:45.666Z,31.20
2022-07-26T15:45:14.726Z,31.20
2022-07-26T15:47:54.897Z,31.20
2022-07-26T15:50:24.803Z,31.20
2022-07-26T15:52:54.485Z,31.20
2022-07-26T15:55:22.748Z,31.20
2022-07-26T15:57:51.072Z,31.20
2022-07-26T16:00:19.895Z,31.20
2022-07-26T16:02:48.342Z,31.20
2022-07-26T16:05:16.639Z,31.30
2022-07-26T16:07:45.745Z,31.30
2022-07-26T16:10:16.440Z,31.30
2022-07-26T16:12:44.854Z,31.30
2022-07-26T16:15:13.385Z,31.30
2022-07-26T16:17:41.587Z,31.40
2022-07-26T16:20:10.404Z,31.40
2022-07-26T16:22:41.162Z,31.40
2022-07-26T16:25:12.547Z,31.40
2022-07-26T16:27:42.703Z,31.40
2022-07-26T16:30:12.940Z,31.40
2022-07-26T16:32:41.392Z,31.40
2022-07-26T16:35:10.548Z,31.40
2022-07-26T16:37:39.693Z,31.40
2022-07-26T16:40:09.699Z,31.40
2022-07-26T16:42:37.979Z,31.40
2022-07-26T16:45:09.093Z,31.40
2022-07-26T16:47:37.357Z,31.40
2022-07-26T16:50:06.237Z,31.40
2022-07-26T16:52:34.567Z,31.30
2022-07-26T16:55:04.137Z,31.30
2022-07-26T16:57:32.443Z,31.30
2022-07-26T17:00:00.669Z,31.30
2022-07-26T17:02:30.300Z,31.40
2022-07-26T17:04:59.593Z,31.40
2022-07-26T17:07:28.215Z,31.40
2022-07-26T17:09:57.073Z,31.40
2022-07-26T17:12:25.574Z,31.40
2022-07-26T17:14:53.826Z,31.40
2022-07-26T17:17:22.029Z,31.40
2022-07-26T17:19:51.673Z,31.40
2022-07-26T17:22:20.348Z,31.40
2022-07-26T17:24:49.049Z,31.40
2022-07-26T17:27:17.877Z,31.40
2022-07-26T17:29:46.144Z,31.40
2022-07-26T17:32:14.518Z,31.40
2022-07-26T17:34:42.966Z,31.40
2022-07-26T17:37:13.868Z,31.40
2022-07-26T17:39:53.225Z,31.40
2022-07-26T17:42:23.057Z,31.40
2022-07-26T17:44:51.485Z,31.40
2022-07-26T17:47:28.919Z,31.40
2022-07-26T17:52:50.229Z,31.30
2022-07-26T17:55:19.668Z,31.30
2022-07-26T17:57:49.636Z,31.30
2022-07-26T18:00:19.430Z,31.30
2022-07-26T18:02:48.027Z,31.30
2022-07-26T18:05:18.241Z,31.30
2022-07-26T18:07:46.702Z,31.30
2022-07-26T18:10:16.306Z,31.30
2022-07-26T18:12:44.518Z,31.30
2022-07-26T18:15:12.884Z,31.30
2022-07-26T18:17:41.363Z,31.30
2022-07-26T18:20:10.847Z,31.30
2022-07-26T18:22:39.083Z,31.30
2022-07-26T18:25:08.281Z,31.30
2022-07-26T18:27:37.880Z,31.30
2022-07-26T18:30:07.578Z,31.30
2022-07-26T18:32:35.922Z,31.30
2022-07-26T18:35:05.939Z,31.30
2022-07-26T18:37:34.355Z,31.30
2022-07-26T18:40:03.002Z,31.30
2022-07-26T18:42:31.395Z,31.30
2022-07-26T18:45:00.983Z,31.30
2022-07-26T18:47:29.410Z,31.30
2022-07-26T18:49:57.632Z,31.30
2022-07-26T18:52:31.856Z,31.30
2022-07-26T18:55:06.613Z,31.30
2022-07-26T18:57:35.140Z,31.30
2022-07-26T19:00:06.282Z,31.30
2022-07-26T19:02:34.781Z,31.30
2022-07-26T19:05:03.189Z,31.30
2022-07-26T19:07:31.817Z,31.30
2022-07-26T19:10:00.074Z,31.30
2022-07-26T19:12:28.785Z,31.40
2022-07-26T19:14:59.801Z,31.40
2022-07-26T19:17:30.118Z,31.50
2022-07-26T19:19:59.903Z,31.50
2022-07-26T19:22:29.193Z,31.50
2022-07-26T19:24:58.188Z,31.50
2022-07-26T19:27:27.849Z,31.50
2022-07-26T19:29:56.884Z,31.50
2022-07-26T19:32:30.351Z,31.50
2022-07-26T19:35:03.400Z,31.50
2022-07-26T19:37:32.062Z,31.40
2022-07-26T19:40:00.374Z,31.30
2022-07-26T19:42:30.513Z,31.30
2022-07-26T19:44:58.976Z,31.30
2022-07-26T19:47:29.622Z,31.40
2022-07-26T19:49:58.700Z,31.30
2022-07-26T19:52:28.685Z,31.30
2022-07-26T19:54:56.858Z,31.30
2022-07-26T19:57:25.486Z,31.30
2022-07-26T19:59:54.356Z,31.30
2022-07-26T20:02:22.825Z,31.30
2022-07-26T20:04:51.524Z,31.30
2022-07-26T20:07:20.253Z,31.30
2022-07-26T20:09:51.088Z,31.30
2022-07-26T20:12:20.183Z,31.20
2022-07-26T20:14:48.734Z,31.20
2022-07-26T20:17:17.145Z,31.20
2022-07-26T20:19:45.482Z,31.10
2022-07-26T20:22:13.712Z,31.10
2022-07-26T20:24:42.000Z,31.10
2022-07-26T20:27:11.724Z,31.00
2022-07-26T20:29:40.046Z,31.00
2022-07-26T20:32:08.598Z,31.00
2022-07-26T20:34:36.813Z,31.00
2022-07-26T20:37:05.087Z,31.00
2022-07-26T20:39:34.693Z,31.00
2022-07-26T20:42:03.349Z,30.90
2022-07-26T20:44:33.395Z,30.90
2022-07-26T20:47:02.808Z,30.90
2022-07-26T20:49:31.120Z,30.90
2022-07-26T20:51:59.668Z,30.90
2022-07-26T20:54:27.896Z,30.90
2022-07-26T20:56:56.068Z,30.90
2022-07-26T20:59:24.821Z,30.90
2022-07-26T21:01:54.447Z,30.90
2022-07-26T21:04:22.787Z,30.80
2022-07-26T21:06:51.055Z,30.80
2022-07-26T21:09:20.856Z,30.80
2022-07-26T21:11:51.116Z,30.80
2022-07-26T21:14:19.619Z,30.80
2022-07-26T21:16:48.092Z,30.80
2022-07-26T21:19:17.701Z,30.80
2022-07-26T21:21:45.913Z,30.80
2022-07-26T21:24:14.203Z,30.80
2022-07-26T21:26:42.402Z,30.70
2022-07-26T21:29:10.904Z,30.70
2022-07-26T21:31:39.316Z,30.70
2022-07-26T21:34:07.548Z,30.60
2022-07-26T21:36:40.233Z,30.60
2022-07-26T21:39:09.218Z,30.50
2022-07-26T21:41:37.717Z,30.50
2022-07-26T21:44:06.733Z,30.40
2022-07-26T21:46:35.034Z,30.40
2022-07-26T21:49:03.439Z,30.40
2022-07-26T21:51:32.086Z,30.30
2022-07-26T21:54:01.695Z,30.30
2022-07-26T21:56:30.171Z,30.30
2022-07-26T21:59:02.302Z,30.30
2022-07-26T22:01:30.854Z,30.20
2022-07-26T22:03:59.114Z,30.20
2022-07-26T22:06:27.890Z,30.20
2022-07-26T22:08:56.155Z,30.10
2022-07-26T22:11:25.825Z,30.10
2022-07-26T22:13:54.173Z,30.10
2022-07-26T22:16:23.138Z,30.00
2022-07-26T22:18:51.489Z,30.00
2022-07-26T22:21:19.881Z,30.00
2022-07-26T22:23:48.265Z,30.00
2022-07-26T22:26:16.838Z,29.90
2022-07-26T22:28:46.456Z,29.90
2022-07-26T22:31:14.645Z,29.80
2022-07-26T22:33:42.878Z,29.80
2022-07-26T22:36:11.075Z,29.80
2022-07-26T22:38:39.277Z,29.80
2022-07-26T22:41:07.496Z,29.80
2022-07-26T22:43:35.675Z,29.80
2022-07-26T22:46:07.798Z,29.70
2022-07-26T22:48:38.634Z,29.70
2022-07-26T22:51:07.536Z,29.70
2022-07-26T22:53:35.713Z,29.60
2022-07-26T22:56:06.441Z,29.60
2022-07-26T22:58:34.617Z,29.60
2022-07-26T23:01:06.721Z,29.50
2022-07-26T23:03:35.014Z,29.50
2022-07-26T23:06:20.199Z,29.50
2022-07-26T23:08:57.765Z,29.40
2022-07-26T23:11:25.928Z,29.40
2022-07-26T23:13:59.075Z,29.40
2022-07-26T23:16:29.008Z,29.40
2022-07-26T23:18:57.424Z,29.30
2022-07-26T23:21:25.597Z,29.30
2022-07-26T23:23:53.757Z,29.30
2022-07-26T23:26:22.289Z,29.30
2022-07-26T23:28:51.591Z,29.30
2022-07-26T23:31:19.859Z,29.20
2022-07-26T23:33:52.091Z,29.20
2022-07-26T23:36:25.157Z,29.20
2022-07-26T23:38:53.895Z,29.20
2022-07-26T23:41:22.353Z,29.20
2022-07-26T23:43:51.013Z,29.10
2022-07-26T23:46:19.493Z,29.10
2022-07-26T23:48:49.387Z,29.10
2022-07-26T23:51:17.888Z,29.10
2022-07-26T23:53:46.306Z,29.10
2022-07-26T23:56:15.420Z,29.00
2022-07-26T23:58:44.473Z,29.00
